Terminal Aerodrome Forecast
Issued by NWS Binghamton, NY

Home | Current Version | Previous Version | Text Only | Print | Product List | Glossary On
Versions: 1 2 3 4 5 6 7 8 9 10 11 12 13 14 15 16 17 18 19 20 21 22 23
251
FTUS41 KBGM 101622 AAA
TAFBGM
TAF AMD
KBGM 101622Z 1016/1112 27010G18KT P6SM -SN SCT025 BKN035
      TEMPO 1016/1020 1 1/2SM -SN OVC012
     FM102000 28010G18KT P6SM -SHSN BKN035
     FM110000 30010KT P6SM -SHSN OVC035=

USA.gov is the U.S. government's official web portal to all federal, state and local government web resources and services.